• Join FlightAware (Why Join?)
  • Login
  • US Flag GB Flag 
14:00 EST


 

Airport Tracker/Info


-or-


 

Live Flight TrackerFlight Track Log ✈ DAL268 ✈ 18-Sep-2013 ✈ KSFO - KJFK

Flight Track Log - Related Links

Times and Time Zones

All times are in EDT time to prevent confusion due to time zone crossing. See the DAL268 flight status page for this flight to view local times or setup timezone preferences in your user account.

Time Position Orientation Groundspeed Altitude Reporting Facility
EDT Latitude Longitude Course Direction KTS MPH feet Rate Location/Type
14:42 37.6110 -122.3780 360° North 100 115  Level FlightAware
14:43 37.6230 -122.3700 28° Northeast 175 201 1,860 Level FlightAware
14:43 37.6390 -122.3580 31° Northeast 158 182 1,400 3,240 Climbing FlightAware
14:43 37.6440 -122.3520 44° Northeast 160 184 1,800 1,980 Climbing FlightAware
14:44 37.6550 -122.3350 51° Northeast 187 215 2,400 1,560 Climbing FlightAware
14:44 37.6670 -122.3170 50° Northeast 211 243 2,900 1,860 Climbing FlightAware
14:44 37.6750 -122.3060 47° Northeast 223 257 3,400 1,800 Climbing FlightAware
14:44 37.6870 -122.2860 53° Northeast 250 288 3,800 2,220 Climbing FlightAware
14:45 37.7080 -122.2550 49° Northeast 266 306 5,100 3,240 Climbing FlightAware
14:45 37.7230 -122.2320 50° Northeast 264 304 6,300 3,360 Climbing FlightAware
14:46 37.7390 -122.2080 50° Northeast 270 311 7,300 3,000 Climbing FlightAware
14:46 37.7570 -122.1810 50° Northeast 275 316 8,400 3,000 Climbing FlightAware
14:46 37.7740 -122.1550 50° Northeast 279 321 9,500 2,460 Climbing FlightAware
14:47 37.8020 -122.1130 50° Northeast 296 341 10,700 1,680 Climbing FlightAware
14:47 37.8280 -122.0840 41° Northeast 327 376 11,100 1,080 Climbing FlightAware
14:48 37.8720 -122.0470 34° Northeast 361 415 11,700 1,020 Climbing FlightAware
14:48 37.9240 -122.0000 35° Northeast 398 458 12,300 1,620 Climbing FlightAware
14:49 37.9790 -121.9520 35° Northeast 406 467 13,700 2,400 Climbing FlightAware
14:50 38.0350 -121.9040 34° Northeast 414 476 15,200 2,340 Climbing FlightAware
14:50 38.0870 -121.8600 34° Northeast 422 486 16,400 2,220 Climbing FlightAware
14:51 38.1500 -121.8060 34° Northeast 429 494 17,800 2,040 Climbing FlightAware
14:51 38.2050 -121.7580 34° Northeast 436 502 18,900 1,920 Climbing FlightAware
14:52 38.2670 -121.7050 34° Northeast 444 511 20,100 1,920 Climbing FlightAware
14:52 38.3190 -121.6600 34° Northeast 449 517 21,100 1,860 Climbing FlightAware
14:53 38.3850 -121.6020 35° Northeast 454 522 22,300 1,740 Climbing FlightAware
14:54 38.4460 -121.5410 38° Northeast 464 534 23,300 1,500 Climbing FlightAware
14:54 38.4930 -121.4700 50° Northeast 474 545 24,100 1,500 Climbing FlightAware
14:55 38.5390 -121.3910 53° Northeast 480 552 25,000 1,500 Climbing FlightAware
14:55 38.5840 -121.3120 54° Northeast 484 557 25,800 840 Climbing FlightAware
14:56 38.6320 -121.2280 54° Northeast 489 563 26,000 180 Climbing FlightAware
14:56 38.6707 -121.1610 53° Northeast 490 564 26,000  Level FlightAware ADS-B
14:57 38.7220 -121.0730 53° Northeast 486 559 26,000 480 Level FlightAware
14:58 38.7700 -120.9890 54° Northeast 488 562 26,600 1,500 Climbing FlightAware
14:58 38.8190 -120.9040 53° Northeast 482 555 27,800 1,800 Climbing FlightAware
14:59 38.8630 -120.8270 54° Northeast 478 550 28,800 1,680 Climbing FlightAware
14:59 38.9090 -120.7490 53° Northeast 476 548 29,800 1,680 Climbing FlightAware
15:00 38.9570 -120.6660 53° Northeast 474 545 30,800 1,560 Climbing FlightAware
15:01 38.9990 -120.5930 53° Northeast 472 543 31,600 1,440 Climbing FlightAware
15:01 39.0440 -120.5160 53° Northeast 469 540 32,400 1,440 Climbing FlightAware
15:02 39.0850 -120.4450 53° Northeast 467 537 33,200 1,380 Climbing FlightAware
15:02 39.1250 -120.3740 54° Northeast 465 535 33,900 1,380 Climbing FlightAware
15:03 39.1730 -120.2900 54° Northeast 461 531 34,800 1,380 Climbing FlightAware
15:03 39.2190 -120.2100 53° Northeast 458 527 35,600 1,140 Climbing FlightAware
15:04 39.2550 -120.1460 54° Northeast 455 524 36,100 960 Climbing FlightAware
15:05 39.3010 -120.0640 54° Northeast 455 524 36,700 720 Climbing FlightAware
15:05 39.3480 -119.9820 53° Northeast 458 527 37,000 240 Climbing FlightAware
15:06 39.3920 -119.9040 54° Northeast 461 531 37,000  Level FlightAware
15:06 39.4330 -119.8320 54° Northeast 465 535 37,000  Level FlightAware
15:07 39.4780 -119.7510 54° Northeast 467 537 37,000  Level FlightAware
15:07 39.5210 -119.6740 54° Northeast 466 536 37,000  Level FlightAware
15:08 39.5670 -119.5920 54° Northeast 467 537 37,000  Level FlightAware
15:09 39.6150 -119.5060 54° Northeast 468 539 37,000  Level FlightAware
15:09 39.6570 -119.4300 54° Northeast 468 539 37,000  Level FlightAware
15:10 39.7020 -119.3500 54° Northeast 469 540 37,000  Level FlightAware
15:10 39.7490 -119.2650 54° Northeast 470 541 37,000  Level FlightAware
15:11 39.7840 -119.2010 55° Northeast 470 541 37,000  Level FlightAware
15:12 39.8300 -119.1170 54° Northeast 471 542 37,000  Level FlightAware
15:12 39.8700 -119.0450 54° Northeast 473 544 37,000  Level FlightAware
15:13 39.9190 -118.9550 55° Northeast 473 544 37,000  Level FlightAware
15:13 39.9650 -118.8730 54° Northeast 474 545 37,000  Level FlightAware
15:14 40.0100 -118.7900 55° Northeast 475 547 37,000  Level FlightAware
15:14 40.0530 -118.7100 55° Northeast 476 548 37,000  Level FlightAware
15:15 40.1000 -118.6240 54° Northeast 476 548 37,000  Level FlightAware
15:16 40.1310 -118.5520 61° Northeast 483 556 37,000  Level FlightAware
15:16 40.1630 -118.4450 69° East 487 560 37,000  Level FlightAware
15:17 40.1880 -118.3530 70° East 488 562 37,000  Level FlightAware
15:17 40.2130 -118.2580 71° East 490 564 37,000  Level FlightAware
15:18 40.2420 -118.1520 70° East 492 566 37,000  Level FlightAware
15:19 40.2710 -118.0460 70° East 492 566 37,000  Level FlightAware
15:19 40.2930 -117.9650 70° East 495 570 37,000  Level FlightAware
15:20 40.3200 -117.8690 70° East 495 570 37,000  Level FlightAware
15:20 40.3430 -117.7820 71° East 495 570 37,000  Level FlightAware
15:21 40.3670 -117.6960 70° East 495 570 37,000  Level FlightAware
15:22 40.3900 -117.6140 70° East 495 570 37,000  Level FlightAware
15:22 40.4150 -117.5250 70° East 495 570 37,000  Level FlightAware
15:23 40.4390 -117.4390 70° East 495 570 37,000  Level FlightAware
15:23 40.4630 -117.3520 70° East 495 570 37,000  Level FlightAware
15:24 40.4870 -117.2630 70° East 495 570 37,000  Level FlightAware
15:25 40.5110 -117.1770 70° East 495 570 37,000  Level FlightAware
15:25 40.5350 -117.0900 70° East 495 570 37,000  Level FlightAware
15:26 40.5590 -117.0030 70° East 495 570 37,000  Level FlightAware
15:26 40.5830 -116.9170 70° East 495 570 37,000  Level FlightAware
15:27 40.6070 -116.8300 70° East 495 570 37,000  Level FlightAware
15:28 40.6310 -116.7430 70° East 495 570 37,000  Level FlightAware
15:28 40.6560 -116.6540 70° East 495 570 37,000  Level FlightAware
15:29 40.7704 -116.2770 68° East 518 596 37,000  Level FlightAware ADS-B
15:29 40.8039 -116.1930 62° Northeast 519 597 37,000  Level FlightAware ADS-B
15:30 40.8375 -116.1080 62° Northeast 520 598 37,000  Level FlightAware ADS-B
15:30 40.8712 -116.0220 63° Northeast 521 600 37,000  Level FlightAware ADS-B
15:31 40.9142 -115.9130 62° Northeast 521 600 37,000  Level FlightAware ADS-B
15:31 40.9499 -115.8220 63° Northeast 524 603 37,000  Level FlightAware ADS-B
15:32 41.0094 -115.6720 62° Northeast 526 605 37,000  Level FlightAware ADS-B
15:33 41.0463 -115.5790 62° Northeast 527 606 37,000  Level FlightAware ADS-B
15:34 41.1198 -115.3920 62° Northeast 527 606 37,000  Level FlightAware ADS-B
15:35 41.1565 -115.2980 63° Northeast 527 606 37,000  Level FlightAware ADS-B
15:35 41.1761 -115.2500 62° Northeast 527 606 37,000  Level FlightAware ADS-B
15:35 41.1835 -115.2330 60° Northeast 526 605 37,000  Level FlightAware ADS-B
15:35 41.1893 -115.2220 55° Northeast 525 604 37,000  Level FlightAware ADS-B
15:35 41.2330 -115.1430 54° Northeast 524 603 37,000  Level FlightAware ADS-B
15:36 41.2576 -115.0950 56° Northeast 526 605 37,000  Level FlightAware ADS-B
15:36 41.2703 -115.0650 61° Northeast 529 609 37,000  Level FlightAware ADS-B
15:36 41.2825 -115.0280 66° East 530 610 37,000  Level FlightAware ADS-B
15:36 41.2931 -114.9840 72° East 532 612 37,000  Level FlightAware ADS-B
15:37 41.2995 -114.9440 78° East 533 613 37,000  Level FlightAware ADS-B
15:37 41.3021 -114.9170 83° East 532 612 37,000  Level FlightAware ADS-B
15:37 41.3120 -114.8260 82° East 533 613 37,000  Level FlightAware
15:37 41.3128 -114.7820 89° East 532 612 37,000  Level FlightAware ADS-B
15:38 41.3204 -114.6790 84° East 534 615 37,000  Level FlightAware ADS-B
15:39 41.3286 -114.5660 84° East 535 616 37,000  Level FlightAware ADS-B
15:39 41.3356 -114.4660 85° East 535 616 37,000  Level FlightAware ADS-B
15:40 41.3424 -114.3680 85° East 531 611 37,000  Level FlightAware ADS-B
15:40 41.3492 -114.2700 85° East 528 608 37,000  Level FlightAware ADS-B
15:41 41.3557 -114.1730 85° East 527 606 37,000  Level FlightAware ADS-B
15:41 41.3623 -114.0740 85° East 528 608 37,000  Level FlightAware ADS-B
15:42 41.3688 -113.9760 85° East 531 611 37,000  Level FlightAware ADS-B
15:42 41.3753 -113.8770 85° East 532 612 37,000  Level FlightAware ADS-B
15:43 41.3817 -113.7790 85° East 534 615 37,000  Level FlightAware ADS-B
15:43 41.3882 -113.6770 85° East 536 617 37,000  Level FlightAware ADS-B
15:44 41.3946 -113.5780 85° East 537 618 37,000  Level FlightAware ADS-B
15:44 41.4012 -113.4730 85° East 539 620 37,000  Level FlightAware ADS-B
15:45 41.4073 -113.3730 85° East 541 623 37,000  Level FlightAware ADS-B
15:45 41.4134 -113.2730 85° East 540 621 37,000  Level FlightAware ADS-B
15:46 41.4194 -113.1740 85° East 540 621 37,000  Level FlightAware ADS-B
15:46 41.4253 -113.0730 86° East 540 621 37,000  Level FlightAware ADS-B
15:47 41.4313 -112.9690 86° East 541 623 37,000  Level FlightAware ADS-B
15:47 41.4384 -112.8440 86° East 541 623 37,000  Level FlightAware ADS-B
15:48 41.4450 -112.7260 86° East 540 621 37,000  Level FlightAware ADS-B
15:48 41.4505 -112.6240 86° East 538 619 37,000  Level FlightAware ADS-B
15:49 41.4559 -112.5250 86° East 540 621 37,000  Level FlightAware ADS-B
15:49 41.4617 -112.4160 86° East 542 624 37,000  Level FlightAware ADS-B
15:50 41.4670 -112.3150 86° East 544 626 37,000  Level FlightAware ADS-B
15:51 41.4725 -112.2080 86° East 547 629 37,000  Level FlightAware ADS-B
15:51 41.4777 -112.1040 86° East 548 631 37,000  Level FlightAware ADS-B
15:52 41.4829 -112.0000 86° East 550 633 37,000  Level FlightAware ADS-B
15:52 41.4880 -111.8950 86° East 554 638 37,000  Level FlightAware ADS-B
15:53 41.4930 -111.7900 86° East 555 639 37,000  Level FlightAware ADS-B
15:53 41.4986 -111.6700 86° East 558 642 37,000  Level FlightAware ADS-B
15:54 41.5033 -111.5680 86° East 559 643 37,000  Level FlightAware ADS-B
15:54 41.5082 -111.4590 87° East 560 644 37,000  Level FlightAware ADS-B
15:55 41.5127 -111.3550 87° East 562 647 37,000  Level FlightAware ADS-B
15:55 41.5174 -111.2440 87° East 562 647 37,000  Level FlightAware ADS-B
15:56 41.5219 -111.1370 87° East 563 648 37,000  Level FlightAware ADS-B
15:56 41.5262 -111.0330 87° East 562 647 37,000 480 Level FlightAware ADS-B
15:57 41.5303 -110.9290 87° East 559 643 37,500 1,320 Climbing FlightAware ADS-B
15:57 41.5344 -110.8260 87° East 545 627 38,400 1,440 Climbing FlightAware ADS-B
15:58 41.5383 -110.7230 87° East 534 615 39,000 480 Climbing FlightAware ADS-B
15:58 41.5430 -110.5890 87° East 527 606 39,000  Level FlightAware
15:59 41.5470 -110.4810 87° East 524 603 39,000  Level FlightAware
16:00 41.5510 -110.3650 87° East 528 608 39,000  Level FlightAware
16:00 41.5550 -110.2530 87° East 527 606 39,000  Level FlightAware
16:01 41.5590 -110.1440 87° East 528 608 39,000  Level FlightAware
16:01 41.5630 -110.0440 87° East 528 608 39,000  Level FlightAware
16:02 41.5670 -109.9420 87° East 528 608 39,000  Level FlightAware
16:03 41.5710 -109.8420 87° East 528 608 39,000  Level FlightAware
16:03 41.5750 -109.7420 87° East 528 608 39,000  Level FlightAware
16:04 41.5790 -109.6420 87° East 528 608 39,000  Level FlightAware
16:04 41.5830 -109.5420 87° East 528 608 39,000  Level FlightAware
16:05 41.5880 -109.4090 87° East 528 608 39,000  Level FlightAware
16:06 41.5920 -109.3100 87° East 528 608 39,000  Level FlightAware
16:06 41.5960 -109.2100 87° East 528 608 39,000  Level FlightAware
16:07 41.5990 -109.1130 88° East 528 608 39,000  Level FlightAware
16:08 41.6030 -109.0130 87° East 528 608 39,000  Level FlightAware
16:08 41.6070 -108.9130 87° East 528 608 39,000  Level FlightAware
16:09 41.6110 -108.8130 87° East 528 608 39,000  Level FlightAware
16:09 41.6150 -108.7130 87° East 528 608 39,000  Level FlightAware
16:10 41.6190 -108.6130 87° East 528 608 39,000  Level FlightAware
16:11 41.6969 -108.1328 87° East 530 610 39,000  Level Denver Center
16:12 41.7222 -107.9472 80° East 530 610 39,000  Level Denver Center
16:13 41.7483 -107.7294 81° East 532 612 39,000  Level Denver Center
16:19 41.8930 -106.5140 81° East 527 606 39,000  Level FlightAware
16:20 41.9060 -106.3970 81° East 527 606 39,000  Level FlightAware
16:21 41.9190 -106.2830 81° East 525 604 39,000  Level FlightAware
16:21 41.9310 -106.1700 82° East 524 603 39,000  Level FlightAware
16:22 41.9450 -106.0480 81° East 523 602 39,000  Level FlightAware
16:22 41.9560 -105.9520 81° East 521 600 39,000  Level FlightAware
16:23 41.9690 -105.8260 82° East 521 600 39,000  Level FlightAware
16:24 41.9810 -105.7120 82° East 520 598 39,000  Level FlightAware
16:24 41.9940 -105.5830 82° East 518 596 39,000  Level FlightAware
16:25 42.0050 -105.4870 81° East 516 594 39,000  Level FlightAware
16:25 42.0170 -105.3690 82° East 516 594 39,000  Level FlightAware
16:26 42.0290 -105.2460 82° East 516 594 39,000  Level FlightAware
16:27 42.0400 -105.1450 82° East 516 594 39,000  Level FlightAware
16:27 42.0510 -105.0350 82° East 520 598 39,000  Level FlightAware
16:28 42.0620 -104.9200 83° East 523 602 39,000  Level FlightAware
16:28 42.0730 -104.8040 83° East 525 604 39,000  Level FlightAware
16:29 42.0830 -104.7040 82° East 527 606 39,000  Level FlightAware
16:29 42.0950 -104.5760 83° East 529 609 39,000  Level FlightAware
16:30 42.1060 -104.4630 82° East 528 608 39,000  Level FlightAware
16:31 42.1170 -104.3440 83° East 528 608 39,000  Level FlightAware
16:31 42.1270 -104.2360 83° East 528 608 39,000  Level FlightAware
16:32 42.1380 -104.1160 83° East 530 610 39,000  Level FlightAware
16:32 42.1470 -104.0160 83° East 531 611 39,000  Level FlightAware
16:33 42.1580 -103.8950 83° East 531 611 39,000  Level FlightAware
16:34 42.1690 -103.7760 83° East 531 611 39,000  Level FlightAware
16:34 42.1830 -103.6150 83° East 531 611 39,000  Level FlightAware
16:35 42.1930 -103.5140 82° East 531 611 39,000  Level FlightAware
16:36 42.2020 -103.4140 83° East 531 611 39,000  Level FlightAware
16:36 42.2110 -103.3130 83° East 531 611 39,000  Level FlightAware
16:37 42.2200 -103.2120 83° East 531 611 39,000  Level FlightAware
16:37 42.2290 -103.1090 83° East 531 611 39,000  Level FlightAware
16:38 42.2390 -103.0020 83° East 531 611 39,000  Level FlightAware
16:39 42.2480 -102.9010 83° East 531 611 39,000  Level FlightAware
16:39 42.2570 -102.8010 83° East 531 611 39,000  Level FlightAware
16:40 42.2660 -102.7000 83° East 531 611 39,000  Level FlightAware
16:40 42.2760 -102.5990 82° East 531 611 39,000  Level FlightAware
16:41 42.2850 -102.4980 83° East 531 611 39,000  Level FlightAware
16:42 42.2940 -102.3970 83° East 531 611 39,000  Level FlightAware
16:42 42.3030 -102.2960 83° East 531 611 39,000  Level FlightAware
16:43 42.3120 -102.1930 83° East 531 611 39,000  Level FlightAware
16:43 42.3220 -102.0920 82° East 531 611 39,000  Level FlightAware
16:44 42.3333 -101.7144 82° East 527 606 39,000  Level Denver Center
16:45 42.3492 -101.4961 84° East 525 604 39,000  Level Denver Center
16:46 42.3611 -101.3092 85° East 522 601 39,000  Level Denver Center
16:47 42.3725 -101.1231 85° East 520 598 39,000  Level Denver Center
16:53 42.4403 -99.9933 85° East 517 595 39,000  Level FlightAware ADS-B
16:53 42.4461 -99.8888 86° East 518 596 39,000  Level FlightAware ADS-B
16:54 42.4513 -99.7911 86° East 518 596 39,000  Level FlightAware ADS-B
16:54 42.4565 -99.6930 86° East 519 597 39,000  Level FlightAware ADS-B
16:55 42.4616 -99.5937 86° East 520 598 39,000  Level FlightAware ADS-B
16:55 42.4666 -99.4949 86° East 520 598 39,000  Level FlightAware ADS-B
16:56 42.4717 -99.3935 86° East 520 598 39,000  Level FlightAware ADS-B
16:57 42.4816 -99.1920 86° East 520 598 39,000  Level FlightAware ADS-B
16:58 42.4862 -99.0942 86° East 521 600 39,000  Level FlightAware ADS-B
16:58 42.4908 -98.9962 86° East 521 600 39,000  Level FlightAware ADS-B
16:59 42.4953 -98.8978 86° East 521 600 39,000  Level FlightAware ADS-B
17:01 42.5147 -98.4510 86° East 518 596 39,000  Level FlightAware ADS-B
17:01 42.5187 -98.3519 87° East 518 596 39,000  Level FlightAware ADS-B
17:02 42.5226 -98.2541 87° East 517 595 39,000  Level FlightAware ADS-B
17:02 42.5264 -98.1575 87° East 517 595 39,000  Level FlightAware ADS-B
17:03 42.5304 -98.0547 87° East 516 594 39,000  Level FlightAware ADS-B
17:03 42.5340 -97.9569 87° East 516 594 39,000  Level FlightAware ADS-B
17:04 42.5376 -97.8598 87° East 516 594 39,000  Level FlightAware ADS-B
17:04 42.5411 -97.7626 87° East 516 594 39,000  Level FlightAware ADS-B
17:05 42.5445 -97.6638 87° East 516 594 39,000  Level FlightAware ADS-B
17:05 42.5479 -97.5668 87° East 517 595 39,000  Level FlightAware ADS-B
17:06 42.5511 -97.4681 87° East 517 595 39,000  Level FlightAware ADS-B
17:06 42.5544 -97.3693 87° East 517 595 39,000  Level FlightAware ADS-B
17:07 42.5574 -97.2721 88° East 517 595 39,000  Level FlightAware ADS-B
17:07 42.5603 -97.1749 88° East 516 594 39,000  Level FlightAware ADS-B
17:08 42.5632 -97.0778 88° East 516 594 39,000  Level FlightAware ADS-B
17:08 42.5661 -96.9800 88° East 514 592 39,000  Level FlightAware ADS-B
17:09 42.5688 -96.8829 88° East 514 592 39,000  Level FlightAware ADS-B
17:09 42.5715 -96.7831 88° East 513 590 39,000  Level FlightAware ADS-B
17:10 42.5741 -96.6870 88° East 513 590 39,000  Level FlightAware ADS-B
17:10 42.5766 -96.5869 88° East 513 590 39,000  Level FlightAware ADS-B
17:11 42.5790 -96.4892 88° East 512 589 39,000  Level FlightAware ADS-B
17:11 42.5813 -96.3932 88° East 512 589 39,000  Level FlightAware ADS-B
17:12 42.5836 -96.2944 88° East 511 588 39,000  Level FlightAware ADS-B
17:13 42.5858 -96.1947 88° East 510 587 39,000  Level FlightAware ADS-B
17:13 42.5879 -96.0948 88° East 511 588 39,000  Level FlightAware ADS-B
17:14 42.5899 -95.9980 88° East 511 588 39,000  Level FlightAware ADS-B
17:14 42.5918 -95.8993 88° East 511 588 39,000  Level FlightAware ADS-B
17:15 42.5936 -95.8016 89° East 510 587 39,000  Level FlightAware ADS-B
17:15 42.5953 -95.7059 89° East 510 587 39,000  Level FlightAware ADS-B
17:16 42.5970 -95.6090 89° East 509 586 39,000  Level FlightAware ADS-B
17:16 42.5985 -95.5131 89° East 509 586 39,000  Level FlightAware ADS-B
17:17 42.6000 -95.4163 89° East 509 586 39,000  Level FlightAware ADS-B
17:17 42.6013 -95.3206 89° East 509 586 39,000  Level FlightAware ADS-B
17:18 42.6027 -95.2231 89° East 510 587 39,000  Level FlightAware ADS-B
17:18 42.6039 -95.1241 89° East 509 586 39,000  Level FlightAware ADS-B
17:19 42.6051 -95.0245 89° East 508 585 39,000  Level FlightAware ADS-B
17:19 42.6061 -94.9281 89° East 508 585 39,000  Level FlightAware ADS-B
17:20 42.6071 -94.8307 89° East 507 583 39,000  Level FlightAware ADS-B
17:20 42.6081 -94.7313 89° East 507 583 39,000  Level FlightAware ADS-B
17:21 42.6089 -94.6360 89° East 505 581 39,000  Level FlightAware ADS-B
17:21 42.6096 -94.5403 89° East 505 581 39,000  Level FlightAware ADS-B
17:22 42.6102 -94.4443 89° East 504 580 39,000  Level FlightAware ADS-B
17:22 42.6108 -94.3442 89° East 505 581 39,000  Level FlightAware ADS-B
17:23 42.6114 -94.2485 89° East 505 581 39,000  Level FlightAware ADS-B
17:23 42.6123 -94.1521 89° East 505 581 39,000  Level FlightAware ADS-B
17:24 42.6133 -94.0478 89° East 506 582 39,000  Level FlightAware ADS-B
17:24 42.6141 -93.9475 89° East 505 581 39,000  Level FlightAware ADS-B
17:25 42.6147 -93.8511 89° East 505 581 39,000  Level FlightAware ADS-B
17:25 42.6146 -93.8577 269° West 505 581 39,000  Level FlightAware ADS-B (LPVM)
17:25 42.6150 -93.7260 90° East 505 581 39,000  Level FlightAware
17:26 42.6157 -93.6503 89° East 505 581 39,000  Level FlightAware ADS-B
17:27 42.6160 -93.4990 90° East 506 582 39,000  Level FlightAware
17:27 42.6163 -93.4491 89° East 506 582 39,000  Level FlightAware ADS-B (LPVM)
17:28 42.6170 -93.2830 90° East 505 581 39,000  Level FlightAware
17:28 42.6170 -93.1710 90° East 504 580 39,000  Level FlightAware
17:29 42.6170 -93.0640 90° East 503 579 39,000  Level FlightAware
17:29 42.6166 -93.0496 92° East 503 579 39,000  Level FlightAware ADS-B (LPVM)
17:30 42.6160 -92.9570 90° East 502 578 39,000  Level FlightAware
17:30 42.6160 -92.8450 90° East 500 575 39,000  Level FlightAware
17:31 42.6160 -92.7310 90° East 499 574 39,000  Level FlightAware
17:31 42.6150 -92.6230 91° East 498 573 39,000  Level FlightAware
17:32 42.6150 -92.5190 90° East 498 573 39,000  Level FlightAware
17:32 42.6146 -92.4855 91° East 498 573 39,000  Level FlightAware ADS-B (LPVM)
17:33 42.6140 -92.3990 91° East 499 574 39,000  Level FlightAware
17:33 42.6140 -92.3850 90° East 499 574 39,000  Level FlightAware ADS-B (LPVM)
17:33 42.6130 -92.2810 91° East 499 574 39,000  Level FlightAware
17:33 42.6132 -92.2704 89° East 499 574 39,000  Level FlightAware ADS-B (LPVM)
17:34 42.6120 -92.1640 91° East 498 573 39,000  Level FlightAware
17:34 42.6110 -92.0600 91° East 498 573 39,000  Level FlightAware
17:35 42.6100 -91.9430 91° East 498 573 39,000  Level FlightAware
17:35 42.6090 -91.8450 91° East 499 574 39,000  Level FlightAware
17:36 42.6088 -91.8207 91° East 498 573 39,000  Level FlightAware ADS-B (LPVM)
17:36 42.6080 -91.7280 91° East 499 574 39,000  Level FlightAware
17:37 42.6060 -91.6180 91° East 499 574 39,000  Level FlightAware
17:37 42.6050 -91.5190 91° East 499 574 39,000  Level FlightAware
17:38 42.6035 -91.4312 91° East 498 573 39,000  Level FlightAware ADS-B (LPVM)
17:38 42.6018 -91.3223 91° East 498 573 39,000  Level FlightAware ADS-B (LPVM)
17:39 42.6001 -91.2183 91° East 498 573 39,000  Level FlightAware ADS-B (LPVM)
17:39 42.5979 -91.0945 91° East 497 572 39,000  Level FlightAware ADS-B (LPVM)
17:40 42.5960 -90.9680 91° East 496 571 39,000  Level FlightAware
17:41 42.5930 -90.8540 92° East 495 570 39,000  Level FlightAware
17:41 42.5910 -90.7430 91° East 494 568 39,000  Level FlightAware
17:42 42.5890 -90.6410 91° East 491 565 39,000  Level FlightAware
17:42 42.5878 -90.5935 92° East 490 564 39,000  Level FlightAware ADS-B (LPVM)
17:43 42.5840 -90.4330 92° East 489 563 39,000  Level FlightAware
17:44 42.5810 -90.3160 92° East 487 560 39,000  Level FlightAware
17:44 42.5780 -90.2020 92° East 485 558 39,000  Level FlightAware
17:45 42.5760 -90.1030 92° East 484 557 39,000  Level FlightAware
17:45 42.5730 -89.9970 92° East 483 556 39,000  Level FlightAware
17:46 42.5700 -89.8960 92° East 483 556 39,000  Level FlightAware
17:47 42.5670 -89.7980 92° East 483 556 39,000  Level FlightAware
17:47 42.5630 -89.6740 92° East 482 555 39,000  Level FlightAware
17:48 42.5600 -89.5740 92° East 482 555 39,000  Level FlightAware
17:48 42.5570 -89.4630 92° East 482 555 39,000  Level FlightAware
17:49 42.5530 -89.3580 93° East 482 555 39,000  Level FlightAware
17:50 42.5500 -89.2620 92° East 483 556 39,000  Level FlightAware
17:50 42.5460 -89.1540 93° East 484 557 39,000  Level FlightAware
17:51 42.5420 -89.0380 93° East 484 557 39,000  Level FlightAware
17:51 42.5390 -88.9450 92° East 484 557 39,000  Level FlightAware
17:52 42.5350 -88.8360 93° East 484 557 39,000  Level FlightAware
17:52 42.5310 -88.7300 93° East 485 558 39,000  Level FlightAware
17:53 42.5260 -88.6190 93° East 486 559 39,000  Level FlightAware
17:54 42.5220 -88.5200 93° East 487 560 39,000  Level FlightAware
17:54 42.5180 -88.4080 93° East 488 562 39,000  Level FlightAware
17:55 42.5130 -88.2940 93° East 490 564 39,000  Level FlightAware
17:55 42.5090 -88.2020 93° East 490 564 39,000  Level FlightAware
17:56 42.5040 -88.0880 93° East 491 565 39,000  Level FlightAware
17:57 42.5010 -87.9780 92° East 493 567 39,000  Level FlightAware
17:57 42.5000 -87.8810 91° East 494 568 39,000  Level FlightAware
17:58 42.5000 -87.7420 90° East 497 572 39,000  Level FlightAware
17:58 42.4990 -87.6340 91° East 499 574 39,000  Level FlightAware
17:59 42.4990 -87.5260 90° East 501 577 39,000  Level FlightAware
18:00 42.4990 -87.4220 90° East 501 577 39,000  Level FlightAware
18:00 42.4980 -87.3170 91° East 501 577 39,000  Level FlightAware
18:01 42.4970 -87.1980 91° East 500 575 39,000  Level FlightAware
18:01 42.4970 -87.0790 90° East 499 574 39,000  Level FlightAware
18:02 42.4960 -86.9840 91° East 499 574 39,000  Level FlightAware
18:03 42.4950 -86.8690 91° East 499 574 39,000  Level FlightAware
18:03 42.4940 -86.7590 91° East 498 573 39,000  Level FlightAware
18:04 42.4930 -86.6650 91° East 497 572 39,000  Level FlightAware
18:04 42.4910 -86.5380 91° East 492 566 39,000  Level FlightAware
18:05 42.4900 -86.4340 91° East 491 565 39,000  Level FlightAware
18:06 42.4880 -86.3090 91° East 488 562 39,000  Level FlightAware
18:06 42.4870 -86.2270 91° East 487 560 39,000  Level FlightAware
18:07 42.4850 -86.1160 91° East 486 559 39,000  Level FlightAware
18:07 42.4830 -86.0180 92° East 485 558 39,000  Level FlightAware
18:08 42.4810 -85.9000 91° East 484 557 39,000  Level FlightAware
18:08 42.4790 -85.7970 91° East 483 556 39,000  Level FlightAware
18:09 42.4770 -85.6910 91° East 482 555 39,000  Level FlightAware
18:10 42.4750 -85.5780 91° East 482 555 39,000  Level FlightAware
18:10 42.4730 -85.4730 91° East 483 556 39,000  Level FlightAware
18:11 42.4700 -85.3460 92° East 483 556 39,000  Level FlightAware
18:11 42.4680 -85.2410 91° East 484 557 39,000  Level FlightAware
18:12 42.4650 -85.1490 93° East 483 556 39,000  Level FlightAware
18:13 42.4630 -85.0430 91° East 483 556 39,000  Level FlightAware
18:13 42.4600 -84.9350 92° East 483 556 39,000  Level FlightAware
18:14 42.4570 -84.8240 92° East 482 555 39,000  Level FlightAware
18:14 42.4530 -84.6930 92° East 482 555 39,000  Level FlightAware
18:15 42.4510 -84.6030 92° East 482 555 39,000  Level FlightAware
18:16 42.4470 -84.4900 93° East 482 555 39,000  Level FlightAware
18:16 42.4440 -84.3820 92° East 482 555 39,000  Level FlightAware
18:17 42.4410 -84.2750 92° East 483 556 39,000  Level FlightAware
18:17 42.4370 -84.1700 93° East 483 556 39,000  Level FlightAware
18:18 42.4340 -84.0640 92° East 484 557 39,000  Level FlightAware
18:19 42.4300 -83.9570 93° East 485 558 39,000  Level FlightAware
18:19 42.4260 -83.8450 93° East 484 557 39,000  Level FlightAware
18:20 42.4220 -83.7490 93° East 475 547 39,000  Level FlightAware
18:20 42.4180 -83.6430 93° East 470 541 39,000  Level FlightAware
18:21 42.4140 -83.5400 93° East 471 542 39,000  Level FlightAware
18:21 42.4100 -83.4350 93° East 473 544 39,000  Level FlightAware
18:22 42.4060 -83.3320 93° East 469 540 39,000  Level FlightAware
18:23 42.4020 -83.2360 93° East 465 535 39,000  Level FlightAware
18:23 42.3980 -83.1280 93° East 462 532 39,000  Level FlightAware
18:24 42.3940 -83.0360 93° East 460 529 39,000  Level FlightAware
18:24 42.3900 -82.9390 93° East 460 529 39,000  Level FlightAware
18:25 42.3850 -82.8320 94° East 459 528 39,000  Level FlightAware
18:26 42.3800 -82.7270 94° East 460 529 39,000  Level FlightAware
18:26 42.3760 -82.6250 93° East 461 531 39,000  Level FlightAware
18:27 42.3720 -82.5310 93° East 462 532 39,000  Level FlightAware
18:27 42.3680 -82.4260 93° East 464 534 39,000  Level FlightAware
18:28 42.3640 -82.3290 93° East 465 535 39,000  Level FlightAware
18:28 42.3600 -82.2280 93° East 466 536 39,000  Level FlightAware
18:29 42.3560 -82.1200 93° East 468 539 39,000  Level FlightAware
18:30 42.3500 -81.9860 93° East 470 541 39,000  Level FlightAware
18:30 42.3450 -81.8730 93° East 471 542 39,000  Level FlightAware
18:31 42.3410 -81.7780 93° East 472 543 39,000  Level FlightAware
18:32 42.3360 -81.6750 94° East 473 544 39,000  Level FlightAware
18:32 42.3300 -81.5620 94° East 473 544 39,000  Level FlightAware
18:33 42.3260 -81.4660 93° East 474 545 39,000  Level FlightAware
18:33 42.3210 -81.3640 94° East 474 545 39,000  Level FlightAware
18:34 42.3160 -81.2550 94° East 474 545 39,000  Level FlightAware
18:34 42.3110 -81.1610 94° East 474 545 39,000  Level FlightAware
18:35 42.3050 -81.0560 94° East 474 545 39,000  Level FlightAware
18:36 42.3000 -80.9490 94° East 473 544 39,000  Level FlightAware
18:36 42.2940 -80.8430 94° East 472 543 39,000  Level FlightAware
18:37 42.2890 -80.7470 94° East 471 542 39,000  Level FlightAware
18:37 42.2830 -80.6410 94° East 470 541 39,000  Level FlightAware
18:38 42.2780 -80.5430 94° East 470 541 39,000  Level FlightAware
18:39 42.2720 -80.4420 95° East 469 540 39,000  Level FlightAware
18:39 42.2660 -80.3380 94° East 469 540 39,000  Level FlightAware
18:40 42.2600 -80.2420 95° East 468 539 39,000  Level FlightAware
18:40 42.2540 -80.1330 94° East 467 537 39,000  Level FlightAware
18:41 42.2480 -80.0340 95° East 466 536 39,000  Level FlightAware
18:42 42.2410 -79.9270 95° East 465 535 39,000  Level FlightAware
18:42 42.2360 -79.8340 94° East 464 534 39,000  Level FlightAware
18:43 42.2290 -79.7310 95° East 462 532 39,000  Level FlightAware
18:43 42.2220 -79.6270 95° East 461 531 39,000  Level FlightAware
18:44 42.2160 -79.5240 94° East 459 528 39,000  Level FlightAware
18:44 42.2100 -79.4320 95° East 458 527 39,000  Level FlightAware
18:45 42.2030 -79.3290 95° East 458 527 39,000  Level FlightAware
18:46 42.1960 -79.2270 95° East 458 527 39,000  Level FlightAware
18:46 42.1890 -79.1410 96° East 460 529 39,000  Level FlightAware
18:47 42.1620 -79.0120 106° East 464 534 39,000  Level FlightAware
18:47 42.1400 -78.9250 109° East 463 533 39,000  Level FlightAware
18:48 42.1140 -78.8200 108° East 463 533 39,000  Level FlightAware
18:49 42.0910 -78.7330 110° East 464 534 39,000  Level FlightAware
18:49 42.0670 -78.6380 109° East 464 534 39,000  Level FlightAware
18:50 42.0420 -78.5360 108° East 464 534 39,000  Level FlightAware
18:50 42.0200 -78.4500 109° East 465 535 39,000  Level FlightAware
18:51 41.9930 -78.3470 109° East 465 535 39,000  Level FlightAware
18:52 41.9690 -78.2540 109° East 464 534 39,000  Level FlightAware
18:52 41.9420 -78.1490 109° East 464 534 39,000  Level FlightAware
18:53 41.9200 -78.0640 109° East 463 533 39,000  Level FlightAware
18:53 41.8950 -77.9660 109° East 463 533 39,000  Level FlightAware
18:54 41.8700 -77.8700 109° East 463 533 39,000  Level FlightAware
18:54 41.8440 -77.7700 109° East 462 532 39,000  Level FlightAware
18:55 41.8210 -77.6840 110° East 462 532 39,000  Level FlightAware
18:56 41.7940 -77.5810 109° East 461 531 39,000  Level FlightAware
18:56 41.7710 -77.4970 110° East 461 531 39,000  Level FlightAware
18:57 41.7460 -77.4020 109° East 461 531 39,000  Level FlightAware
18:57 41.7190 -77.3020 110° East 462 532 39,000  Level FlightAware
18:58 41.6930 -77.2060 110° East 462 532 39,000  Level FlightAware
18:59 41.6700 -77.1200 110° East 462 532 39,000  Level FlightAware
18:59 41.6450 -77.0250 109° East 461 531 39,000  Level FlightAware
19:00 41.6210 -76.9400 111° Southeast 461 531 39,000  Level FlightAware
19:00 41.5920 -76.8320 110° East 461 531 39,000  Level FlightAware
19:01 41.5660 -76.7380 110° East 461 531 39,000  Level FlightAware
19:02 41.5330 -76.6160 110° East 463 533 39,000  Level FlightAware
19:02 41.5120 -76.5400 110° East 463 533 39,000  Level FlightAware
19:03 41.4900 -76.4600 110° East 463 533 39,000  Level FlightAware
19:03 41.4540 -76.3330 111° Southeast 463 533 39,000 -480 Level FlightAware
19:04 41.4270 -76.2350 110° East 466 536 38,400 -1,860 Descending FlightAware
19:05 41.4040 -76.1520 110° East 472 543 37,000 -2,880 Descending FlightAware
19:05 41.3750 -76.0480 110° East 479 551 35,200 -2,820 Descending FlightAware
19:06 41.3450 -75.9430 111° Southeast 480 552 33,500 -2,700 Descending FlightAware
19:06 41.3210 -75.8600 111° Southeast 478 550 32,100 -2,760 Descending FlightAware
19:07 41.2950 -75.7680 111° Southeast 475 547 30,600 -3,000 Descending FlightAware
19:08 41.2620 -75.6580 112° Southeast 476 548 28,500 -3,000 Descending FlightAware
19:08 41.2340 -75.5720 113° Southeast 475 547 27,000 -2,760 Descending FlightAware
19:09 41.2020 -75.4770 114° Southeast 467 537 25,400 -2,580 Descending FlightAware
19:09 41.1750 -75.3970 114° Southeast 456 525 24,100 -1,980 Descending FlightAware
19:10 41.1420 -75.3000 114° Southeast 450 518 23,100 -960 Descending FlightAware
19:10 41.1160 -75.2230 114° Southeast 450 518 23,000 -120 Descending FlightAware
19:11 41.0810 -75.1170 114° Southeast 450 518 23,000  Level FlightAware
19:12 41.0530 -75.0350 114° Southeast 450 518 23,000  Level FlightAware
19:12 41.0220 -74.9450 115° Southeast 450 518 23,000  Level FlightAware
19:13 40.9990 -74.8640 111° Southeast 450 518 23,000 -300 Level FlightAware
19:13 40.9840 -74.7680 102° East 446 513 22,700 -1,200 Descending FlightAware
19:14 40.9740 -74.6700 98° East 431 496 21,600 -2,220 Descending FlightAware
19:15 40.9640 -74.5790 98° East 423 487 20,100 -2,100 Descending FlightAware
19:15 40.9540 -74.4870 98° East 419 482 19,100 -960 Descending FlightAware
19:16 40.9450 -74.4030 98° East 417 480 19,000 -120 Descending FlightAware
19:16 40.9310 -74.3050 101° East 400 460 19,000  Level FlightAware
19:17 40.9180 -74.2680 115° Southeast 380 437 19,000  Level FlightAware
19:17 40.8820 -74.2040 127° Southeast 340 391 19,000 -600 Level FlightAware
19:18 40.8474 -74.1458 128° Southeast 326 375 18,300 -1,260 Descending FlightAware ADS-B
19:18 40.8234 -74.1061 129° Southeast 323 372 17,700 -1,440 Descending FlightAware ADS-B
19:18 40.8134 -74.0949 140° Southeast 322 371 17,500 -1,440 Descending FlightAware ADS-B
19:19 40.7909 -74.0814 156° South 320 368 17,100 -1,620 Descending FlightAware ADS-B
19:19 40.7411 -74.0670 168° South 320 368 16,100 -2,100 Descending FlightAware ADS-B
19:20 40.6709 -74.0471 168° South 311 358 14,200 -2,160 Descending FlightAware ADS-B
19:21 40.6170 -74.0310 167° South 310 357 13,000 -1,320 Descending FlightAware
19:21 40.5730 -74.0180 167° South 310 357 12,700 -300 Descending FlightAware
19:22 40.5220 -74.0020 167° South 306 352 12,700  Level FlightAware
19:22 40.4730 -73.9880 168° South 304 350 12,700 -300 Level FlightAware
19:23 40.4250 -73.9680 162° South 301 346 12,400 -900 Descending FlightAware
19:24 40.3840 -73.9460 158° South 304 350 11,700 -1,440 Descending FlightAware
19:24 40.3370 -73.9210 158° South 303 349 10,800 -840 Descending FlightAware
19:25 40.2890 -73.8960 158° South 304 350 10,700 -540 Descending FlightAware
19:25 40.2740 -73.8860 153° Southeast 300 345 10,400 -1,500 Descending FlightAware
19:25 40.2670 -73.8780 139° Southeast 296 341 10,200 -1,500 Descending FlightAware
19:25 40.2590 -73.8660 131° Southeast 294 338 10,000 -1,500 Descending FlightAware
19:25 40.2500 -73.8490 125° Southeast 293 337 9,700 -1,440 Descending FlightAware
19:26 40.2460 -73.8340 109° East 292 336 9,500 -1,200 Descending FlightAware
19:26 40.2380 -73.8080 112° Southeast 290 334 9,200 -1,200 Descending FlightAware
19:26 40.2300 -73.7750 108° East 287 330 8,800 -1,200 Descending FlightAware
19:27 40.2220 -73.7420 108° East 284 327 8,400 -1,320 Descending FlightAware
19:27 40.2190 -73.7200 100° East 282 325 8,100 -1,380 Descending FlightAware
19:27 40.2290 -73.6860 69° East 276 318 7,600 -1,200 Descending FlightAware
19:27 40.2350 -73.6780 46° Northeast 277 319 7,500 -1,500 Descending FlightAware
19:27 40.2400 -73.6730 37° Northeast 276 318 7,300 -1,500 Descending FlightAware
19:28 40.2630 -73.6510 36° Northeast 275 316 6,800 -1,380 Descending FlightAware
19:28 40.2860 -73.6300 35° Northeast 275 316 6,300 -1,500 Descending FlightAware
19:28 40.3030 -73.6130 37° Northeast 275 316 5,900 -1,200 Descending FlightAware
19:29 40.3210 -73.5970 34° Northeast 274 315 5,600 -1,320 Descending FlightAware
19:29 40.3540 -73.5740 28° Northeast 274 315 4,900 -1,380 Descending FlightAware
19:29 40.3770 -73.5590 26° Northeast 273 314 4,500 -1,200 Descending FlightAware
19:30 40.3940 -73.5480 26° Northeast 271 312 4,200 -1,260 Descending FlightAware
19:30 40.4160 -73.5340 26° Northeast 269 310 3,800 -1,020 Descending FlightAware
19:30 40.4270 -73.5270 26° Northeast 270 311 3,700 -240 Descending FlightAware
19:31 40.4470 -73.5130 28° Northeast 271 312 3,700  Level FlightAware
19:31 40.4760 -73.4950 25° Northeast 270 311 3,700  Level FlightAware
19:31 40.5020 -73.4770 28° Northeast 270 311 3,700  Level FlightAware
19:32 40.5250 -73.4620 26° Northeast 269 310 3,700  Level FlightAware
19:32 40.5480 -73.4470 26° Northeast 260 299 3,700  Level FlightAware
19:32 40.5690 -73.4340 25° Northeast 243 280 3,700  Level FlightAware
19:33 40.5860 -73.4240 24° Northeast 229 264 3,700 180 Level FlightAware
19:33 40.5950 -73.4230 North 227 261 3,800  Climbing FlightAware
19:33 40.6230 -73.4250 357° North 228 262 3,700 -180 Descending FlightAware
19:34 40.6450 -73.4270 356° North 227 261 3,700  Level FlightAware
19:34 40.6530 -73.4300 344° North 224 258 3,700 -540 Level FlightAware
19:34 40.6570 -73.4330 330° Northwest 222 255 3,600 -1,020 Descending FlightAware
19:34 40.6630 -73.4400 318° Northwest 218 251 3,500 -720 Descending FlightAware
19:34 40.6770 -73.4560 319° Northwest 218 251 3,300 -840 Descending FlightAware
19:35 40.6900 -73.4720 317° Northwest 217 250 3,000 -840 Descending FlightAware
19:35 40.7050 -73.4890 319° Northwest 214 246 2,800 -600 Descending FlightAware
19:35 40.7140 -73.5000 317° Northwest 213 245 2,700 -180 Descending FlightAware
19:35 40.7290 -73.5190 316° Northwest 217 250 2,700  Level FlightAware
19:36 40.7460 -73.5390 318° Northwest 215 247 2,700 -360 Level FlightAware
19:36 40.7550 -73.5500 317° Northwest 213 245 2,500 -1,260 Descending FlightAware
19:36 40.7700 -73.5680 318° Northwest 211 243 2,000 -1,380 Descending FlightAware
19:37 40.7810 -73.5810 318° Northwest 206 237 1,700 -540 Descending FlightAware
19:37 40.7940 -73.5960 319° Northwest 173 199 1,700 180 Level FlightAware
19:37 40.7970 -73.6000 315° West 166 191 1,800 420 Climbing FlightAware
19:37 40.7990 -73.6070 291° West 160 184 1,800  Level FlightAware
19:37 40.7990 -73.6100 270° West 157 181 1,800 -240 Level FlightAware
19:38 40.7930 -73.6340 252° West 156 180 1,700 -240 Descending FlightAware
19:38 40.7900 -73.6370 217° Southwest 156 180 1,700  Level FlightAware
19:38 40.7770 -73.6520 221° Southwest 156 180 1,700  Level FlightAware
19:38 40.7650 -73.6620 212° Southwest 157 181 1,700  Level FlightAware
19:39 40.7530 -73.6710 210° Southwest 156 180 1,700  Level FlightAware
19:39 40.7370 -73.6830 210° Southwest 156 180 1,700  Level FlightAware
19:39 40.7300 -73.6880 208° Southwest 158 182 1,700 -600 Level FlightAware
19:40 40.7170 -73.6990 213° Southwest 153 176 1,400 -840 Descending FlightAware
19:40 40.7090 -73.7050 210° Southwest 143 165 1,200 -720 Descending FlightAware
19:40 40.6970 -73.7140 210° Southwest 126 145 1,000 -780 Descending FlightAware
19:41 40.6910 -73.7190 212° Southwest 120 138 800 -660 Descending FlightAware
19:41 40.6800 -73.7280 212° Southwest 119 137 600 -600 Descending FlightAware
19:41 40.6700 -73.7350 208° Southwest 120 138 400 -780 Descending FlightAware
19:42 40.6610 -73.7430 214° Southwest 120 138 100 -900 Descending FlightAware
19:42 40.6550 -73.7470 207° Southwest 118 136 -540 Descending FlightAware
19:42 40.6430 -73.7560 210° Southwest 118 136  Level FlightAware
19:43 40.6350 -73.7630 214° Southwest 80 92  Level FlightAware